Time;durP1;ratioP1;P1;durP2;ratioP2;P2;SDS_P1;SDS_P2;PMS_P1;PMS_P2;Temp;Humidity;BMP_temperature;BMP_pressure;BME280_temperature;BME280_humidity;BME280_pressure;Samples;Min_cycle;Max_cycle;Signal;HPM_P1;HPM_P2
2024/01/10 00:00:04;;;;;;;60.43;28.63;;;;;;;-10.08;100.00;102845.69;5048427;28;20441;-73
2024/01/10 00:02:30;;;;;;;58.93;25.13;;;;;;;-10.08;100.00;102850.78;5045043;28;20956;-72
2024/01/10 00:04:56;;;;;;;61.73;26.13;;;;;;;-10.06;100.00;102846.34;5042505;28;20461;-72
2024/01/10 00:07:23;;;;;;;59.43;24.20;;;;;;;-10.05;100.00;102853.09;5043883;28;20445;-72
2024/01/10 00:09:49;;;;;;;52.73;24.03;;;;;;;-10.07;100.00;102852.41;5042367;28;20560;-73
2024/01/10 00:12:16;;;;;;;48.17;21.17;;;;;;;-10.01;100.00;102846.72;5038980;28;20446;-72
2024/01/10 00:14:43;;;;;;;50.00;22.83;;;;;;;-9.98;100.00;102834.50;5044601;28;20848;-73
2024/01/10 00:17:10;;;;;;;52.23;24.07;;;;;;;-10.00;100.00;102827.91;5048492;28;20454;-72
2024/01/10 00:19:36;;;;;;;55.60;23.37;;;;;;;-9.98;100.00;102826.00;5047940;28;20465;-73
2024/01/10 00:22:02;;;;;;;53.57;23.07;;;;;;;-9.96;100.00;102826.66;5042392;28;20454;-72
2024/01/10 00:24:29;;;;;;;53.07;24.23;;;;;;;-9.96;100.00;102824.09;5048749;28;20475;-72
2024/01/10 00:26:55;;;;;;;61.13;23.47;;;;;;;-9.94;100.00;102819.69;5041892;28;20832;-72
2024/01/10 00:29:22;;;;;;;56.00;23.20;;;;;;;-9.94;100.00;102820.47;5044772;28;20454;-72
2024/01/10 00:31:52;;;;;;;61.10;24.73;;;;;;;-9.90;100.00;102821.00;5043030;28;20470;-72
2024/01/10 00:34:18;;;;;;;58.10;24.00;;;;;;;-9.90;100.00;102815.88;5044826;28;20532;-72
2024/01/10 00:36:45;;;;;;;69.60;26.07;;;;;;;-9.91;100.00;102816.84;5048149;28;20445;-72
2024/01/10 00:39:11;;;;;;;51.60;23.40;;;;;;;-9.87;100.00;102816.44;5049876;28;20454;-72
2024/01/10 00:41:37;;;;;;;57.03;23.17;;;;;;;-9.88;100.00;102812.25;5048166;28;20457;-72
2024/01/10 00:44:04;;;;;;;57.87;24.83;;;;;;;-9.83;100.00;102812.66;5040243;28;20489;-72
2024/01/10 00:46:30;;;;;;;60.93;24.70;;;;;;;-9.84;100.00;102816.16;5047786;28;20449;-74
2024/01/10 00:48:58;;;;;;;60.77;25.27;;;;;;;-9.84;100.00;102812.81;5044933;28;20473;-72
2024/01/10 00:51:24;;;;;;;64.73;24.80;;;;;;;-9.79;100.00;102825.97;5047921;28;20813;-73
2024/01/10 00:53:50;;;;;;;57.83;24.10;;;;;;;-9.78;100.00;102823.25;5043175;28;20995;-73
2024/01/10 00:56:17;;;;;;;54.73;25.27;;;;;;;-9.84;100.00;102821.25;5046306;28;20840;-73
2024/01/10 00:58:43;;;;;;;57.43;23.83;;;;;;;-9.82;100.00;102818.56;5043627;28;20453;-72
2024/01/10 01:01:10;;;;;;;54.17;23.83;;;;;;;-9.86;100.00;102810.38;5048903;28;20553;-74
2024/01/10 01:03:36;;;;;;;55.33;24.57;;;;;;;-9.84;100.00;102826.38;5051539;28;20456;-73
2024/01/10 01:06:04;;;;;;;61.77;25.73;;;;;;;-9.87;100.00;102831.78;5045590;28;20454;-72
2024/01/10 01:08:30;;;;;;;60.47;26.57;;;;;;;-9.90;100.00;102833.78;5045089;28;20450;-74
2024/01/10 01:10:57;;;;;;;58.97;23.50;;;;;;;-9.91;100.00;102839.84;5045602;28;20485;-72
2024/01/10 01:13:23;;;;;;;72.00;27.23;;;;;;;-9.94;100.00;102840.13;5047225;28;20932;-73
2024/01/10 01:15:49;;;;;;;55.67;24.83;;;;;;;-9.96;100.00;102837.69;5046193;28;20474;-73
2024/01/10 01:18:16;;;;;;;61.37;26.80;;;;;;;-9.98;100.00;102833.66;5049011;28;20461;-73
2024/01/10 01:20:42;;;;;;;57.97;24.87;;;;;;;-9.98;100.00;102836.22;5051345;28;20448;-73
2024/01/10 01:23:10;;;;;;;58.60;23.73;;;;;;;-10.00;100.00;102831.25;5045703;28;20450;-74
2024/01/10 01:25:36;;;;;;;55.70;24.67;;;;;;;-10.01;100.00;102833.94;5045626;28;20477;-73
2024/01/10 01:28:03;;;;;;;73.27;26.20;;;;;;;-10.02;100.00;102840.81;5047001;28;20458;-73
2024/01/10 01:30:29;;;;;;;60.73;24.63;;;;;;;-10.07;100.00;102832.78;5048220;28;20460;-72
2024/01/10 01:32:56;;;;;;;62.80;25.10;;;;;;;-10.08;100.00;102833.72;5048084;28;20454;-72
2024/01/10 01:35:22;;;;;;;65.10;25.33;;;;;;;-10.11;100.00;102844.19;5050585;28;20477;-73
2024/01/10 01:37:48;;;;;;;64.93;26.40;;;;;;;-10.14;100.00;102833.47;5044678;28;20548;-72
2024/01/10 01:40:16;;;;;;;62.83;25.67;;;;;;;-10.16;100.00;102832.78;5043865;28;20438;-72
2024/01/10 01:42:44;;;;;;;49.90;22.37;;;;;;;-10.20;100.00;102836.56;5050200;28;20456;-72
2024/01/10 01:45:11;;;;;;;62.50;25.53;;;;;;;-10.21;100.00;102832.38;5046660;28;20466;-72
2024/01/10 01:47:38;;;;;;;63.87;24.97;;;;;;;-10.22;100.00;102826.47;5048988;28;20488;-73
2024/01/10 01:50:05;;;;;;;58.43;26.37;;;;;;;-10.21;100.00;102829.81;5052491;28;20847;-72
2024/01/10 01:52:34;;;;;;;59.43;25.53;;;;;;;-10.23;100.00;102827.41;5048440;28;20819;-73
2024/01/10 01:55:00;;;;;;;61.80;26.13;;;;;;;-10.21;100.00;102834.91;5051529;28;20485;-73
2024/01/10 01:57:28;;;;;;;59.20;25.17;;;;;;;-10.23;100.00;102827.41;5048378;28;20445;-72
2024/01/10 01:59:55;;;;;;;68.03;27.20;;;;;;;-10.22;100.00;102818.00;5049277;28;20957;-73
2024/01/10 02:02:22;;;;;;;62.10;25.97;;;;;;;-10.22;100.00;102831.59;5043399;28;20442;-73
2024/01/10 02:04:49;;;;;;;64.87;29.70;;;;;;;-10.20;100.00;102821.25;5043451;28;20843;-72
2024/01/10 02:07:15;;;;;;;67.37;25.93;;;;;;;-10.21;100.00;102822.97;5048054;28;20450;-73
2024/01/10 02:09:41;;;;;;;55.47;24.77;;;;;;;-10.20;100.00;102811.03;5041427;28;20447;-72
2024/01/10 02:12:08;;;;;;;61.77;26.10;;;;;;;-10.18;100.00;102820.16;5048627;28;20449;-72
2024/01/10 02:14:36;;;;;;;74.07;31.50;;;;;;;-10.17;100.00;102820.94;5047226;28;20481;-73
2024/01/10 02:17:03;;;;;;;106.60;39.47;;;;;;;-10.16;100.00;102817.44;5043435;28;20481;-72
2024/01/10 02:19:31;;;;;;;65.30;30.50;;;;;;;-10.13;100.00;102823.13;5047501;28;20438;-73
2024/01/10 02:21:57;;;;;;;103.10;37.87;;;;;;;-10.13;100.00;102810.34;5047009;28;20457;-73
2024/01/10 02:24:23;;;;;;;78.90;32.70;;;;;;;-10.12;100.00;102814.50;5047427;28;20477;-72
2024/01/10 02:26:51;;;;;;;61.83;27.77;;;;;;;-10.11;100.00;102811.00;5044566;28;20450;-73
2024/01/10 02:29:17;;;;;;;67.20;26.83;;;;;;;-10.09;100.00;102811.66;5043075;28;20458;-72
2024/01/10 02:31:45;;;;;;;62.83;26.67;;;;;;;-10.08;100.00;102813.28;5042067;28;20473;-72
2024/01/10 02:34:11;;;;;;;58.27;25.97;;;;;;;-10.11;100.00;102808.44;5043389;28;20493;-72
2024/01/10 02:36:37;;;;;;;68.97;28.83;;;;;;;-10.09;100.00;102804.00;5044879;28;20478;-72
2024/01/10 02:39:04;;;;;;;70.70;27.30;;;;;;;-10.10;100.00;102804.94;5043474;28;20966;-72
2024/01/10 02:41:30;;;;;;;68.60;25.87;;;;;;;-10.10;100.00;102804.16;5040310;28;20462;-72
2024/01/10 02:43:58;;;;;;;63.07;24.97;;;;;;;-10.11;100.00;102800.78;5045768;28;20752;-72
2024/01/10 02:46:27;;;;;;;67.20;25.30;;;;;;;-10.12;100.00;102793.25;5047906;28;21117;-72
2024/01/10 02:48:54;;;;;;;70.07;25.17;;;;;;;-10.11;100.00;102798.22;5044771;28;20932;-72
2024/01/10 02:51:21;;;;;;;66.73;27.47;;;;;;;-10.12;100.00;102800.91;5039895;28;20836;-72
2024/01/10 02:53:47;;;;;;;66.90;26.00;;;;;;;-10.16;100.00;102797.84;5045160;28;21006;-72
2024/01/10 02:56:13;;;;;;;70.20;26.77;;;;;;;-10.16;100.00;102790.16;5044523;28;20478;-72
2024/01/10 02:58:40;;;;;;;60.23;26.67;;;;;;;-10.18;100.00;102789.50;5042159;28;20457;-72
2024/01/10 03:01:09;;;;;;;59.70;25.37;;;;;;;-10.16;100.00;102782.50;5044331;28;20441;-73
2024/01/10 03:03:35;;;;;;;58.70;26.07;;;;;;;-10.10;100.00;102784.50;5044024;28;20438;-72
2024/01/10 03:06:01;;;;;;;55.97;25.17;;;;;;;-10.17;100.00;102782.63;5048608;28;20447;-72
2024/01/10 03:08:28;;;;;;;58.77;25.23;;;;;;;-10.21;100.00;102787.22;5046960;28;20983;-72
2024/01/10 03:10:54;;;;;;;69.30;28.77;;;;;;;-10.22;100.00;102779.69;5039873;28;20465;-72
2024/01/10 03:13:20;;;;;;;63.63;25.80;;;;;;;-10.23;100.00;102776.34;5048664;28;20469;-72
2024/01/10 03:15:47;;;;;;;59.70;26.47;;;;;;;-10.25;100.00;102768.00;5047948;28;20505;-73
2024/01/10 03:18:15;;;;;;;66.07;25.97;;;;;;;-10.28;100.00;102765.72;5048443;28;20540;-73
2024/01/10 03:20:41;;;;;;;67.77;28.97;;;;;;;-10.28;100.00;102768.28;5047745;28;20481;-72
2024/01/10 03:23:07;;;;;;;71.57;29.70;;;;;;;-10.26;100.00;102781.72;5043459;28;20461;-72
2024/01/10 03:25:34;;;;;;;66.90;28.60;;;;;;;-10.28;100.00;102770.03;5048764;28;21009;-73
2024/01/10 03:28:00;;;;;;;65.13;26.33;;;;;;;-10.28;100.00;102778.50;5042236;28;20452;-72
2024/01/10 03:30:26;;;;;;;58.17;25.13;;;;;;;-10.29;100.00;102779.44;5051437;28;20453;-73
2024/01/10 03:32:52;;;;;;;58.83;25.43;;;;;;;-10.30;100.00;102772.72;5044945;28;20454;-73
2024/01/10 03:35:20;;;;;;;58.67;23.90;;;;;;;-10.25;100.00;102778.22;5040809;28;20482;-72
2024/01/10 03:37:46;;;;;;;65.33;26.67;;;;;;;-10.32;100.00;102772.06;5047022;28;20454;-73
2024/01/10 03:40:13;;;;;;;62.90;25.33;;;;;;;-10.32;100.00;102777.16;5045117;28;20800;-73
2024/01/10 03:42:40;;;;;;;74.60;26.80;;;;;;;-10.34;100.00;102775.69;5043942;28;20801;-72
2024/01/10 03:45:06;;;;;;;64.57;27.20;;;;;;;-10.36;100.00;102777.56;5044594;28;21002;-72
2024/01/10 03:47:33;;;;;;;66.27;26.97;;;;;;;-10.38;100.00;102782.00;5047640;28;20484;-73
2024/01/10 03:49:59;;;;;;;61.53;25.20;;;;;;;-10.41;100.00;102784.84;5041767;28;20466;-73
2024/01/10 03:52:27;;;;;;;69.07;25.97;;;;;;;-10.48;100.00;102782.00;5049250;28;20456;-73
2024/01/10 03:54:53;;;;;;;66.17;26.67;;;;;;;-10.48;100.00;102776.91;5047924;28;20986;-72
2024/01/10 03:57:19;;;;;;;53.47;25.70;;;;;;;-10.49;100.00;102777.03;5045646;28;20963;-72
2024/01/10 03:59:46;;;;;;;69.00;28.73;;;;;;;-10.50;100.00;102783.88;5048955;28;20461;-72
2024/01/10 04:02:12;;;;;;;73.70;30.17;;;;;;;-10.50;100.00;102770.31;5049755;28;20456;-72
2024/01/10 04:04:39;;;;;;;65.47;27.37;;;;;;;-10.52;100.00;102767.91;5048264;28;21061;-72
2024/01/10 04:07:05;;;;;;;71.03;28.67;;;;;;;-10.52;100.00;102774.75;5049674;28;20782;-73
2024/01/10 04:09:33;;;;;;;97.53;34.37;;;;;;;-10.52;100.00;102767.91;5047738;28;20820;-72
2024/01/10 04:11:59;;;;;;;77.37;29.20;;;;;;;-10.50;100.00;102772.88;5050585;28;20945;-73
2024/01/10 04:14:25;;;;;;;92.50;34.47;;;;;;;-10.53;100.00;102768.84;5042978;28;20996;-72
2024/01/10 04:16:53;;;;;;;99.17;37.00;;;;;;;-10.54;100.00;102772.34;5048815;28;20488;-72
2024/01/10 04:19:20;;;;;;;65.83;26.30;;;;;;;-10.55;100.00;102773.28;5046229;28;20449;-72
2024/01/10 04:21:46;;;;;;;56.30;23.73;;;;;;;-10.54;100.00;102768.97;5052261;28;20767;-72
2024/01/10 04:24:13;;;;;;;66.37;28.10;;;;;;;-10.44;100.00;102762.13;5048404;28;20465;-74
2024/01/10 04:26:41;;;;;;;55.93;26.30;;;;;;;-10.37;100.00;102769.09;5053972;28;20449;-72
2024/01/10 04:29:07;;;;;;;60.00;25.63;;;;;;;-10.32;100.00;102761.84;5044566;28;20461;-72
2024/01/10 04:31:35;;;;;;;73.50;29.80;;;;;;;-10.38;100.00;102766.69;5049189;28;20465;-72
2024/01/10 04:34:01;;;;;;;58.03;26.23;;;;;;;-10.39;100.00;102763.34;5048501;28;20485;-72
2024/01/10 04:36:28;;;;;;;63.90;26.87;;;;;;;-10.32;100.00;102766.94;5045190;28;20458;-73
2024/01/10 04:38:54;;;;;;;61.00;27.30;;;;;;;-10.32;100.00;102766.94;5049905;28;20464;-72
2024/01/10 04:41:20;;;;;;;56.33;25.77;;;;;;;-10.30;100.00;102769.38;5046552;28;20452;-72
2024/01/10 04:43:48;;;;;;;56.97;25.83;;;;;;;-10.27;100.00;102771.63;5045181;28;20995;-72
2024/01/10 04:46:14;;;;;;;56.57;24.83;;;;;;;-10.26;100.00;102763.06;5050528;28;20453;-72
2024/01/10 04:48:41;;;;;;;55.47;24.20;;;;;;;-10.23;100.00;102768.69;5044369;28;20804;-72
2024/01/10 04:51:07;;;;;;;57.57;22.93;;;;;;;-10.26;100.00;102763.84;5047095;28;20815;-72
2024/01/10 04:53:33;;;;;;;47.10;21.80;;;;;;;-10.27;100.00;102758.88;5044164;28;20462;-72
2024/01/10 04:56:00;;;;;;;66.60;26.73;;;;;;;-10.30;100.00;102766.81;5051202;28;20477;-72
2024/01/10 04:58:26;;;;;;;52.97;23.63;;;;;;;-10.30;100.00;102771.91;5043444;28;20454;-72
2024/01/10 05:00:54;;;;;;;66.07;25.33;;;;;;;-10.32;100.00;102773.78;5042743;28;20445;-71
2024/01/10 05:03:21;;;;;;;58.70;24.57;;;;;;;-10.32;100.00;102769.50;5047184;28;20540;-72
2024/01/10 05:05:47;;;;;;;61.00;25.33;;;;;;;-10.31;100.00;102762.66;5051324;28;20489;-72
2024/01/10 05:08:13;;;;;;;63.90;24.30;;;;;;;-10.32;100.00;102761.03;5044550;28;20465;-72
2024/01/10 05:10:40;;;;;;;60.03;25.87;;;;;;;-10.31;100.00;102772.88;5049838;28;20210;-72
2024/01/10 05:13:06;;;;;;;63.47;26.47;;;;;;;-10.36;100.00;102759.69;5044417;28;20453;-72
2024/01/10 05:15:33;;;;;;;62.90;27.13;;;;;;;-10.40;100.00;102756.59;5046453;28;20564;-72
2024/01/10 05:18:00;;;;;;;54.57;25.00;;;;;;;-10.39;100.00;102755.69;5049976;28;20465;-72
2024/01/10 05:20:27;;;;;;;54.17;23.90;;;;;;;-10.48;100.00;102753.94;5048711;28;20812;-72
2024/01/10 05:22:53;;;;;;;60.93;25.07;;;;;;;-10.52;100.00;102760.25;5050599;28;20803;-71
2024/01/10 05:25:19;;;;;;;55.20;22.83;;;;;;;-10.43;100.00;102749.22;5048081;28;20466;-71
2024/01/10 05:27:46;;;;;;;60.33;24.37;;;;;;;-10.38;100.00;102753.91;5045446;28;20504;-72
2024/01/10 05:30:13;;;;;;;57.30;24.57;;;;;;;-10.40;100.00;102753.25;5048402;28;20855;-71
2024/01/10 05:32:39;;;;;;;57.50;23.73;;;;;;;-10.43;100.00;102756.06;5043592;28;20458;-72
2024/01/10 05:35:10;;;;;;;67.80;25.33;;;;;;;-10.41;100.00;102754.19;5049964;28;20487;-72
2024/01/10 05:37:36;;;;;;;63.57;26.33;;;;;;;-10.49;100.00;102751.50;5046307;28;20505;-71
2024/01/10 05:40:03;;;;;;;56.90;24.37;;;;;;;-10.45;100.00;102747.75;5050447;28;20441;-72
2024/01/10 05:42:29;;;;;;;61.30;23.90;;;;;;;-10.43;100.00;102745.84;5047590;28;20827;-72
2024/01/10 05:44:56;;;;;;;59.77;24.40;;;;;;;-10.47;100.00;102747.88;5003895;28;20568;-72
2024/01/10 05:47:22;;;;;;;58.97;23.93;;;;;;;-10.48;100.00;102748.81;5039187;28;20458;-72
2024/01/10 05:49:48;;;;;;;57.73;24.43;;;;;;;-10.46;100.00;102743.59;5049883;28;20804;-72
2024/01/10 05:52:16;;;;;;;60.77;24.33;;;;;;;-10.48;100.00;102751.38;5052304;28;20962;-72
2024/01/10 05:54:43;;;;;;;50.45;24.40;;;;;;;-10.48;100.00;102753.94;5049524;28;20477;-72
2024/01/10 05:57:09;;;;;;;55.90;23.93;;;;;;;-10.47;100.00;102755.53;5047033;28;20211;-72
2024/01/10 05:59:35;;;;;;;59.42;23.38;;;;;;;-10.46;100.00;102754.59;5041653;28;20458;-72
2024/01/10 06:02:02;;;;;;;59.73;24.67;;;;;;;-10.45;100.00;102757.97;5042116;28;20210;-71
2024/01/10 06:04:30;;;;;;;55.77;24.40;;;;;;;-10.46;100.00;102751.25;5048066;28;20500;-71
2024/01/10 06:06:58;;;;;;;57.67;23.50;;;;;;;-10.44;100.00;102759.56;5048740;28;20449;-71
2024/01/10 06:09:25;;;;;;;52.60;23.13;;;;;;;-10.44;100.00;102757.84;5048731;28;20441;-72
2024/01/10 06:11:52;;;;;;;58.97;23.07;;;;;;;-10.47;100.00;102757.28;5043040;28;20446;-72
2024/01/10 06:14:18;;;;;;;67.73;26.13;;;;;;;-10.50;100.00;102762.66;5043813;28;20481;-72
2024/01/10 06:16:45;;;;;;;51.75;22.67;;;;;;;-10.54;100.00;102758.78;5047762;28;20836;-71
2024/01/10 06:19:12;;;;;;;58.87;26.00;;;;;;;-10.51;100.00;102761.06;5051044;28;20195;-73
2024/01/10 06:21:38;;;;;;;53.43;25.60;;;;;;;-10.55;100.00;102757.97;5049855;28;20453;-72
2024/01/10 06:24:05;;;;;;;58.07;23.53;;;;;;;-10.62;100.00;102763.75;5056812;28;20484;-72
2024/01/10 06:26:33;;;;;;;55.60;25.33;;;;;;;-10.57;100.00;102764.94;5042485;28;20461;-72
2024/01/10 06:28:59;;;;;;;55.97;24.73;;;;;;;-10.58;100.00;102760.78;5047546;28;20673;-72
2024/01/10 06:31:26;;;;;;;60.20;26.52;;;;;;;-10.62;100.00;102759.44;5049469;28;20541;-72
2024/01/10 06:33:52;;;;;;;60.83;24.13;;;;;;;-10.62;100.00;102769.66;5043967;28;20234;-72
2024/01/10 06:36:18;;;;;;;65.93;26.08;;;;;;;-10.63;100.00;102775.69;5047892;28;20457;-72
2024/01/10 06:38:45;;;;;;;53.30;23.93;;;;;;;-10.61;100.00;102761.03;5038058;28;20601;-72
2024/01/10 06:41:13;;;;;;;57.50;24.40;;;;;;;-10.61;100.00;102755.94;5046991;28;20813;-72
2024/01/10 06:43:41;;;;;;;62.05;25.52;;;;;;;-10.66;100.00;102757.31;5044314;28;20449;-72
2024/01/10 06:46:08;;;;;;;59.57;25.97;;;;;;;-10.67;100.00;102763.34;5049340;28;20199;-71
2024/01/10 06:48:34;;;;;;;60.53;24.60;;;;;;;-10.73;100.00;102763.88;5042574;28;20783;-72
2024/01/10 06:51:00;;;;;;;54.25;22.98;;;;;;;-10.73;100.00;102764.69;5042352;28;20566;-72
2024/01/10 06:53:27;;;;;;;59.45;25.77;;;;;;;-10.72;100.00;102753.53;5046955;28;20203;-72
2024/01/10 06:55:53;;;;;;;72.83;28.33;;;;;;;-10.76;100.00;102744.53;5045886;28;20206;-72
2024/01/10 06:58:19;;;;;;;59.63;26.17;;;;;;;-10.65;100.00;102748.69;5048476;28;20469;-72
2024/01/10 07:00:47;;;;;;;55.45;24.67;;;;;;;-10.68;100.00;102748.97;5043449;28;20203;-72
2024/01/10 07:03:13;;;;;;;52.17;21.17;;;;;;;-10.69;100.00;102747.34;5039898;28;20680;-72
2024/01/10 07:05:39;;;;;;;52.73;23.20;;;;;;;-10.67;100.00;102746.28;5056263;28;20478;-72
2024/01/10 07:08:06;;;;;;;54.38;24.35;;;;;;;-10.65;100.00;102751.25;5044286;28;20461;-72
2024/01/10 07:10:32;;;;;;;60.03;23.97;;;;;;;-10.70;100.00;102749.13;5043180;28;20543;-72
2024/01/10 07:12:59;;;;;;;70.37;27.17;;;;;;;-10.66;100.00;102744.53;5048688;28;20453;-72
2024/01/10 07:15:25;;;;;;;54.17;23.90;;;;;;;-10.66;100.00;102749.66;5045639;28;20481;-71
2024/01/10 07:17:53;;;;;;;57.72;23.50;;;;;;;-10.62;100.00;102743.34;5048922;28;20215;-72
2024/01/10 07:20:19;;;;;;;56.72;23.23;;;;;;;-10.63;100.00;102744.25;5041941;28;20203;-72
2024/01/10 07:22:45;;;;;;;51.83;24.65;;;;;;;-10.67;100.00;102738.63;5044232;28;20204;-73
2024/01/10 07:25:14;;;;;;;64.97;26.02;;;;;;;-10.66;100.00;102747.09;5038346;28;20224;-71
2024/01/10 07:27:40;;;;;;;60.93;25.03;;;;;;;-10.60;100.00;102738.91;5040863;28;20195;-73
2024/01/10 07:30:13;;;;;;;58.00;25.63;;;;;;;-10.58;100.00;102737.81;5046024;28;20507;-72
2024/01/10 07:32:39;;;;;;;63.83;26.45;;;;;;;-10.56;100.00;102742.78;5037318;28;20549;-72
2024/01/10 07:35:09;;;;;;;56.00;26.00;;;;;;;-10.56;100.00;102740.25;5045041;28;20218;-72
2024/01/10 07:37:35;;;;;;;70.22;26.92;;;;;;;-10.56;100.00;102743.59;5039859;28;20226;-72
2024/01/10 07:40:03;;;;;;;63.90;26.10;;;;;;;-10.57;100.00;102741.97;5040431;28;20686;-72
2024/01/10 07:42:29;;;;;;;64.63;28.93;;;;;;;-10.54;100.00;102746.81;5049135;28;20449;-73
2024/01/10 07:44:56;;;;;;;66.30;27.63;;;;;;;-10.59;100.00;102751.53;5046797;28;20474;-72
2024/01/10 07:47:23;;;;;;;75.25;30.50;;;;;;;-10.63;100.00;102751.91;5041705;28;20458;-72
2024/01/10 07:49:49;;;;;;;77.25;32.75;;;;;;;-10.68;100.00;102759.97;5044985;28;20195;-72
2024/01/10 07:52:17;;;;;;;67.47;29.40;;;;;;;-10.65;100.00;102753.81;5043665;28;20211;-72
2024/01/10 07:54:43;;;;;;;86.80;33.17;;;;;;;-10.67;100.00;102742.94;5037724;28;20478;-72
2024/01/10 07:57:09;;;;;;;74.60;32.50;;;;;;;-10.64;100.00;102756.22;5037210;28;20465;-72
2024/01/10 07:59:36;;;;;;;66.73;29.87;;;;;;;-10.61;100.00;102757.72;5042624;28;20453;-72
2024/01/10 08:02:02;;;;;;;96.17;40.60;;;;;;;-10.61;100.00;102758.50;5044737;28;20808;-72
2024/01/10 08:04:29;;;;;;;68.70;29.90;;;;;;;-10.59;100.00;102748.16;5043120;28;21035;-72
2024/01/10 08:06:55;;;;;;;82.50;33.50;;;;;;;-10.56;100.00;102758.91;5045418;28;20535;-71
2024/01/10 08:09:24;;;;;;;81.03;32.40;;;;;;;-10.50;100.00;102757.56;5039219;28;20473;-72
2024/01/10 08:11:51;;;;;;;70.82;31.30;;;;;;;-10.47;100.00;102757.28;5043876;28;20491;-72
2024/01/10 08:14:17;;;;;;;78.80;31.80;;;;;;;-10.43;100.00;102750.97;5034828;28;20241;-72
2024/01/10 08:16:44;;;;;;;77.63;33.30;;;;;;;-10.38;100.00;102753.91;5036296;28;20449;-72
2024/01/10 08:19:11;;;;;;;76.63;31.57;;;;;;;-10.35;100.00;102751.09;5041463;28;20461;-72
2024/01/10 08:21:38;;;;;;;72.53;30.57;;;;;;;-10.30;100.00;102751.50;5038589;28;20504;-72
2024/01/10 08:24:05;;;;;;;72.23;31.70;;;;;;;-10.25;100.00;102746.78;5041153;28;20580;-72
2024/01/10 08:26:33;;;;;;;73.07;32.10;;;;;;;-10.20;100.00;102747.19;5038013;28;20461;-72
2024/01/10 08:28:59;;;;;;;77.57;32.20;;;;;;;-10.14;100.00;102746.63;5035916;28;20809;-72
2024/01/10 08:31:26;;;;;;;76.80;29.10;;;;;;;-10.08;100.00;102746.88;5034871;28;20470;-72
2024/01/10 08:33:53;;;;;;;71.67;31.87;;;;;;;-10.00;100.00;102752.06;5038039;28;20521;-72
2024/01/10 08:36:19;;;;;;;80.97;31.83;;;;;;;-9.96;100.00;102750.84;5042174;28;20446;-72
2024/01/10 08:38:46;;;;;;;94.40;36.53;;;;;;;-9.91;100.00;102746.13;5040862;28;20488;-72
2024/01/10 08:41:12;;;;;;;84.00;37.67;;;;;;;-9.87;100.00;102747.44;5039830;28;20447;-72
2024/01/10 08:43:41;;;;;;;81.93;34.07;;;;;;;-9.79;100.00;102754.41;5047857;28;20450;-73
2024/01/10 08:46:09;;;;;;;76.73;33.87;;;;;;;-9.73;100.00;102753.84;5049759;28;20501;-72
2024/01/10 08:48:36;;;;;;;74.90;30.37;;;;;;;-9.69;100.00;102745.75;5044236;28;20453;-72
2024/01/10 08:51:02;;;;;;;79.63;33.13;;;;;;;-9.60;100.00;102752.59;5040777;28;20465;-71
2024/01/10 08:53:29;;;;;;;80.90;33.40;;;;;;;-9.57;100.00;102749.72;5048189;28;20453;-71
2024/01/10 08:55:55;;;;;;;73.47;32.83;;;;;;;-9.50;100.00;102747.41;5041473;28;20465;-72
2024/01/10 08:58:21;;;;;;;81.10;34.67;;;;;;;-9.44;100.00;102749.41;5045411;28;21085;-72
2024/01/10 09:00:49;;;;;;;77.37;32.03;;;;;;;-9.38;100.00;102752.19;5042287;28;20462;-73
2024/01/10 09:03:16;;;;;;;85.90;33.67;;;;;;;-9.34;100.00;102742.47;5047525;28;20469;-72
2024/01/10 09:05:42;;;;;;;81.30;31.73;;;;;;;-9.27;100.00;102741.75;5041092;28;20992;-72
2024/01/10 09:08:08;;;;;;;81.67;33.60;;;;;;;-9.17;100.00;102739.94;5037169;28;20461;-72
2024/01/10 09:10:35;;;;;;;76.47;33.93;;;;;;;-9.15;100.00;102743.19;5038488;28;20450;-72
2024/01/10 09:13:01;;;;;;;84.07;34.00;;;;;;;-9.09;100.00;102754.59;5039745;28;20460;-71
2024/01/10 09:15:27;;;;;;;72.50;31.90;;;;;;;-9.03;100.00;102759.13;5044172;28;20825;-72
2024/01/10 09:17:55;;;;;;;81.60;33.80;;;;;;;-8.96;100.00;102758.38;5046358;28;20465;-72
2024/01/10 09:20:21;;;;;;;87.83;34.93;;;;;;;-8.92;100.00;102746.91;5036589;28;20523;-72
2024/01/10 09:22:48;;;;;;;87.63;35.27;;;;;;;-8.87;100.00;102744.72;5042921;28;20453;-72
2024/01/10 09:25:15;;;;;;;82.67;34.87;;;;;;;-8.81;100.00;102744.13;5041229;28;21021;-71
2024/01/10 09:27:43;;;;;;;83.87;34.17;;;;;;;-8.72;100.00;102748.38;5040889;28;20462;-72
2024/01/10 09:30:10;;;;;;;95.60;38.00;;;;;;;-8.68;100.00;102743.78;5042113;28;20469;-72
2024/01/10 09:32:37;;;;;;;80.50;34.80;;;;;;;-8.63;100.00;102739.00;5044175;28;20449;-72
2024/01/10 09:35:05;;;;;;;79.30;34.93;;;;;;;-8.57;100.00;102746.09;5040645;28;20479;-72
2024/01/10 09:37:31;;;;;;;88.63;37.27;;;;;;;-8.53;100.00;102752.53;5043910;28;20850;-72
2024/01/10 09:39:58;;;;;;;83.57;36.50;;;;;;;-8.46;100.00;102748.41;5037014;28;20457;-72
2024/01/10 09:42:25;;;;;;;80.57;33.87;;;;;;;-8.41;100.00;102757.28;5039380;28;20486;-72
2024/01/10 09:44:52;;;;;;;91.33;37.70;;;;;;;-8.34;100.00;102760.06;5040901;28;20927;-72
2024/01/10 09:47:20;;;;;;;105.07;39.03;;;;;;;-8.29;100.00;102750.16;5042188;28;20451;-73
2024/01/10 09:49:47;;;;;;;90.83;37.17;;;;;;;-8.25;100.00;102757.38;5039300;28;20857;-71
2024/01/10 09:52:25;;;;;;;84.53;35.83;;;;;;;-8.21;100.00;102761.28;5042288;28;20471;-72
2024/01/10 09:54:56;;;;;;;86.10;37.27;;;;;;;-8.15;100.00;102759.81;5039144;28;20478;-74
2024/01/10 09:57:23;;;;;;;79.83;33.07;;;;;;;-8.10;100.00;102755.03;5041944;28;20487;-71
2024/01/10 09:59:51;;;;;;;83.40;34.30;;;;;;;-8.04;100.00;102755.25;5041228;28;20827;-72
2024/01/10 10:02:18;;;;;;;74.77;35.27;;;;;;;-8.02;100.00;102748.19;5043204;28;20449;-71
2024/01/10 10:04:54;;;;;;;80.43;34.07;;;;;;;-7.97;100.00;102748.56;5045407;28;20483;-72
2024/01/10 10:07:22;;;;;;;92.77;35.97;;;;;;;-7.92;100.00;102750.69;5035554;28;21074;-72
2024/01/10 10:09:48;;;;;;;90.50;34.93;;;;;;;-7.85;100.00;102756.78;5042512;28;21049;-72
2024/01/10 10:12:15;;;;;;;80.13;34.10;;;;;;;-7.80;100.00;102754.56;5042467;28;20462;-72
2024/01/10 10:14:41;;;;;;;87.20;35.07;;;;;;;-7.76;100.00;102750.75;5036039;28;20486;-72
2024/01/10 10:17:17;;;;;;;87.20;36.07;;;;;;;-7.72;100.00;102742.59;5040985;28;20890;-71
2024/01/10 10:19:45;;;;;;;79.93;36.07;;;;;;;-7.68;100.00;102741.34;5038654;28;20819;-72
2024/01/10 10:22:12;;;;;;;93.40;35.33;;;;;;;-7.63;100.00;102746.00;5042039;28;20968;-72
2024/01/10 10:24:41;;;;;;;83.57;34.90;;;;;;;-7.59;100.00;102739.59;5042246;28;20560;-72
2024/01/10 10:27:09;;;;;;;82.07;36.27;;;;;;;-7.56;100.00;102737.53;5037730;28;20985;-73
2024/01/10 10:29:36;;;;;;;81.87;33.30;;;;;;;-7.49;100.00;102742.84;5041508;28;20460;-72
2024/01/10 10:32:03;;;;;;;82.20;36.07;;;;;;;-7.45;100.00;102733.91;5036150;28;20459;-72
2024/01/10 10:34:31;;;;;;;88.13;35.77;;;;;;;-7.39;100.00;102733.25;5038781;28;20486;-71
2024/01/10 10:36:59;;;;;;;80.60;34.43;;;;;;;-7.34;100.00;102743.88;5038595;28;20454;-73
2024/01/10 10:39:25;;;;;;;82.77;34.80;;;;;;;-7.28;100.00;102743.22;5043219;28;20866;-72
2024/01/10 10:41:54;;;;;;;84.20;35.80;;;;;;;-7.23;100.00;102735.88;5042718;28;20466;-73
2024/01/10 10:44:25;;;;;;;88.63;37.57;;;;;;;-7.19;100.00;102724.34;5038860;28;20533;-73
2024/01/10 10:46:55;;;;;;;89.90;34.47;;;;;;;-7.15;100.00;102728.22;5039267;28;20493;-72
2024/01/10 10:49:28;;;;;;;83.03;34.80;;;;;;;-7.11;100.00;102729.47;5038755;28;20869;-73
2024/01/10 10:51:58;;;;;;;82.97;36.73;;;;;;;-7.06;100.00;102727.22;5038790;28;20464;-74
2024/01/10 10:54:27;;;;;;;85.03;35.70;;;;;;;-7.02;100.00;102719.06;5035545;28;20492;-73